createdAt,value
2023-05-12T00:01:59.241Z,100457.00
2023-05-12T00:04:27.340Z,100460.00
2023-05-12T00:06:55.258Z,100459.00
2023-05-12T00:09:23.163Z,100458.00
2023-05-12T00:11:51.208Z,100456.00
2023-05-12T00:14:19.706Z,100456.00
2023-05-12T00:16:52.004Z,100460.00
2023-05-12T00:19:21.266Z,100464.00
2023-05-12T00:21:49.203Z,100465.00
2023-05-12T00:24:17.155Z,100472.00
2023-05-12T00:26:45.010Z,100464.00
2023-05-12T00:29:13.884Z,100480.00
2023-05-12T00:31:41.812Z,100480.00
2023-05-12T00:34:12.689Z,100480.00
2023-05-12T00:36:41.115Z,100487.00
2023-05-12T00:39:09.071Z,100487.00
2023-05-12T00:41:37.243Z,100482.00
2023-05-12T00:44:05.702Z,100491.00
2023-05-12T00:46:34.721Z,100479.00
2023-05-12T00:49:03.024Z,100476.00
2023-05-12T00:51:31.167Z,100486.00
2023-05-12T00:53:59.717Z,100485.00
2023-05-12T00:56:28.004Z,100483.00
2023-05-12T00:58:56.480Z,100487.00
2023-05-12T01:01:24.741Z,100487.00
2023-05-12T01:03:55.712Z,100491.00
2023-05-12T01:06:30.205Z,100496.00
2023-05-12T01:08:59.081Z,100501.00
2023-05-12T01:11:27.337Z,100505.00
2023-05-12T01:13:55.451Z,100504.00
2023-05-12T01:16:25.736Z,100499.00
2023-05-12T01:18:56.232Z,100499.00
2023-05-12T01:21:24.477Z,100505.00
2023-05-12T01:24:06.105Z,100509.00
2023-05-12T01:26:34.328Z,100512.00
2023-05-12T01:29:04.090Z,100508.00
2023-05-12T01:31:32.428Z,100507.00
2023-05-12T01:34:00.416Z,100512.00
2023-05-12T01:36:28.699Z,100502.00
2023-05-12T01:38:56.873Z,100503.00
2023-05-12T01:41:24.855Z,100512.00
2023-05-12T01:43:52.961Z,100515.00
2023-05-12T01:46:21.326Z,100519.00
2023-05-12T01:48:50.683Z,100517.00
2023-05-12T01:51:18.845Z,100516.00
2023-05-12T01:53:46.953Z,100519.00
2023-05-12T01:56:15.115Z,100522.00
2023-05-12T01:58:43.056Z,100537.00
2023-05-12T02:01:10.893Z,100531.00
2023-05-12T02:03:39.116Z,100528.00
2023-05-12T02:06:12.539Z,100518.00
2023-05-12T02:08:41.201Z,100526.00
2023-05-12T02:11:09.959Z,100524.00
2023-05-12T02:13:39.341Z,100526.00
2023-05-12T02:16:07.984Z,100508.00
2023-05-12T02:18:35.941Z,100518.00
2023-05-12T02:21:07.625Z,100528.00
2023-05-12T02:23:36.237Z,100533.00
2023-05-12T02:26:04.578Z,100530.00
2023-05-12T02:28:32.919Z,100526.00
2023-05-12T02:31:01.035Z,100530.00
2023-05-12T02:33:31.201Z,100526.00
2023-05-12T02:35:59.514Z,100525.00
2023-05-12T02:38:27.780Z,100539.00
2023-05-12T02:40:55.954Z,100528.00
2023-05-12T02:43:24.562Z,100523.00
2023-05-12T02:45:53.456Z,100524.00
2023-05-12T02:48:21.958Z,100510.00
2023-05-12T02:50:49.953Z,100508.00
2023-05-12T02:53:18.004Z,100506.00
2023-05-12T02:55:46.210Z,100502.00
2023-05-12T02:58:14.154Z,100500.00
2023-05-12T03:00:42.185Z,100509.00
2023-05-12T03:03:10.455Z,100528.00
2023-05-12T03:05:38.628Z,100547.00
2023-05-12T03:08:06.901Z,100543.00
2023-05-12T03:10:35.766Z,100543.00
2023-05-12T03:13:29.339Z,100549.00
2023-05-12T03:16:01.693Z,100545.00
2023-05-12T03:18:31.128Z,100538.00
2023-05-12T03:20:59.179Z,100536.00
2023-05-12T03:23:26.943Z,100525.00
2023-05-12T03:25:56.752Z,100537.00
2023-05-12T03:28:25.096Z,100537.00
2023-05-12T03:30:54.190Z,100544.00
2023-05-12T03:33:22.301Z,100550.00
2023-05-12T03:35:51.513Z,100550.00
2023-05-12T03:38:19.442Z,100547.00
2023-05-12T03:40:52.885Z,100556.00
2023-05-12T03:43:22.104Z,100557.00
2023-05-12T03:45:50.236Z,100548.00
2023-05-12T03:48:18.437Z,100560.00
2023-05-12T03:50:46.727Z,100549.00
2023-05-12T03:53:14.867Z,100544.00
2023-05-12T03:55:42.981Z,100554.00
2023-05-12T03:58:11.321Z,100548.00
2023-05-12T04:00:40.201Z,100557.00
2023-05-12T04:03:14.661Z,100556.00
2023-05-12T04:05:43.008Z,100561.00
2023-05-12T04:08:10.933Z,100557.00
2023-05-12T04:10:42.490Z,100559.00
2023-05-12T04:13:10.382Z,100559.00
2023-05-12T04:15:38.286Z,100566.00
2023-05-12T04:18:06.141Z,100571.00
2023-05-12T04:20:35.841Z,100568.00
2023-05-12T04:23:04.177Z,100577.00
2023-05-12T04:25:32.462Z,100583.00
2023-05-12T04:28:00.752Z,100580.00
2023-05-12T04:30:29.097Z,100577.00
2023-05-12T04:32:57.104Z,100577.00
2023-05-12T04:35:25.588Z,100581.00
2023-05-12T04:37:53.631Z,100591.00
2023-05-12T04:40:21.929Z,100589.00
2023-05-12T04:42:51.587Z,100578.00
2023-05-12T04:45:20.207Z,100583.00
2023-05-12T04:47:48.613Z,100586.00
2023-05-12T04:50:17.006Z,100594.00
2023-05-12T04:52:45.307Z,100600.00
2023-05-12T04:55:14.105Z,100586.00
2023-05-12T04:57:42.328Z,100595.00
2023-05-12T05:00:12.935Z,100597.00
2023-05-12T05:02:41.748Z,100600.00
2023-05-12T05:05:13.637Z,100581.00
2023-05-12T05:07:41.788Z,100591.00
2023-05-12T05:10:10.070Z,100595.00
2023-05-12T05:12:40.840Z,100598.00
2023-05-12T05:15:11.803Z,100589.00
2023-05-12T05:17:40.493Z,100601.00
2023-05-12T05:20:12.710Z,100604.00
2023-05-12T05:22:43.269Z,100603.00
2023-05-12T05:25:12.479Z,100607.00
2023-05-12T05:27:40.696Z,100619.00
2023-05-12T05:30:09.596Z,100617.00
2023-05-12T05:32:40.589Z,100610.00
2023-05-12T05:35:09.347Z,100610.00
2023-05-12T05:37:41.919Z,100621.00
2023-05-12T05:40:10.409Z,100615.00
2023-05-12T05:42:38.332Z,100623.00
2023-05-12T05:45:06.923Z,100615.00
2023-05-12T05:47:36.279Z,100615.00
2023-05-12T05:50:05.849Z,100619.00
2023-05-12T05:52:36.701Z,100619.00
2023-05-12T05:55:05.169Z,100627.00
2023-05-12T05:57:33.322Z,100627.00
2023-05-12T06:00:01.541Z,100622.00
2023-05-12T06:02:30.002Z,100633.00
2023-05-12T06:04:58.156Z,100635.00
2023-05-12T06:07:27.132Z,100635.00
2023-05-12T06:09:56.149Z,100635.00
2023-05-12T06:12:24.176Z,100639.00
2023-05-12T06:14:52.628Z,100642.00
2023-05-12T06:17:22.210Z,100641.00
2023-05-12T06:19:50.883Z,100641.00
2023-05-12T06:22:21.756Z,100656.00
2023-05-12T06:24:49.789Z,100659.00
2023-05-12T06:27:17.923Z,100654.00
2023-05-12T06:29:47.821Z,100655.00
2023-05-12T06:32:17.149Z,100664.00
2023-05-12T06:34:45.307Z,100659.00
2023-05-12T06:37:13.281Z,100659.00
2023-05-12T06:39:41.341Z,100666.00
2023-05-12T06:42:09.430Z,100670.00
2023-05-12T06:44:42.759Z,100672.00
2023-05-12T06:47:10.784Z,100662.00
2023-05-12T06:49:39.068Z,100670.00
2023-05-12T06:52:07.694Z,100672.00
2023-05-12T06:54:38.637Z,100676.00
2023-05-12T06:57:06.793Z,100673.00
2023-05-12T06:59:34.882Z,100678.00
2023-05-12T07:02:05.884Z,100681.00
2023-05-12T07:04:34.521Z,100674.00
2023-05-12T07:07:04.591Z,100677.00
2023-05-12T07:09:32.727Z,100679.00
2023-05-12T07:12:00.971Z,100678.00
2023-05-12T07:14:29.066Z,100683.00
2023-05-12T07:16:57.654Z,100688.00
2023-05-12T07:19:25.728Z,100684.00
2023-05-12T07:21:54.211Z,100673.00
2023-05-12T07:24:22.150Z,100679.00
2023-05-12T07:26:50.270Z,100672.00
2023-05-12T07:29:18.609Z,100682.00
2023-05-12T07:31:47.179Z,100677.00
2023-05-12T07:34:15.389Z,100673.00
2023-05-12T07:36:43.653Z,100675.00
2023-05-12T07:39:13.066Z,100680.00
2023-05-12T07:41:41.379Z,100679.00
2023-05-12T07:44:09.643Z,100675.00
2023-05-12T07:46:37.746Z,100676.00
2023-05-12T07:49:07.989Z,100678.00
2023-05-12T07:51:36.349Z,100687.00
2023-05-12T07:54:05.025Z,100675.00
2023-05-12T07:56:33.522Z,100679.00
2023-05-12T07:59:01.674Z,100680.00
2023-05-12T08:01:29.861Z,100680.00
2023-05-12T08:03:58.107Z,100677.00
2023-05-12T08:06:26.719Z,100681.00
2023-05-12T08:08:58.460Z,100682.00
2023-05-12T08:11:27.232Z,100692.00
2023-05-12T08:13:55.364Z,100689.00
2023-05-12T08:16:23.617Z,100698.00
2023-05-12T08:18:51.747Z,100693.00
2023-05-12T08:21:19.780Z,100702.00
2023-05-12T08:23:47.877Z,100698.00
2023-05-12T08:26:16.244Z,100709.00
2023-05-12T08:28:44.164Z,100704.00
2023-05-12T08:31:12.386Z,100701.00
2023-05-12T08:33:40.668Z,100701.00
2023-05-12T08:36:09.283Z,100698.00
2023-05-12T08:38:37.428Z,100701.00
2023-05-12T08:41:22.227Z,100706.00
2023-05-12T08:43:53.736Z,100710.00
2023-05-12T08:46:22.211Z,100712.00
2023-05-12T08:48:51.746Z,100702.00
2023-05-12T08:51:20.551Z,100712.00
2023-05-12T08:53:48.860Z,100714.00
2023-05-12T08:58:50.929Z,100718.00
2023-05-12T09:01:19.067Z,100714.00
2023-05-12T09:03:47.252Z,100717.00
2023-05-12T09:06:15.925Z,100722.00
2023-05-12T09:08:44.243Z,100715.00
2023-05-12T09:11:14.098Z,100716.00
2023-05-12T09:14:00.810Z,100715.00
2023-05-12T09:16:38.711Z,100717.00
2023-05-12T09:19:08.481Z,100720.00
2023-05-12T09:21:37.389Z,100717.00
2023-05-12T09:24:07.488Z,100721.00
2023-05-12T09:26:51.944Z,100726.00
2023-05-12T09:29:29.960Z,100723.00
2023-05-12T09:32:04.839Z,100718.00
2023-05-12T09:34:41.365Z,100718.00
2023-05-12T09:37:09.890Z,100726.00
2023-05-12T09:39:37.936Z,100719.00
2023-05-12T09:42:12.824Z,100728.00
2023-05-12T09:44:41.837Z,100722.00
2023-05-12T09:47:10.851Z,100720.00
2023-05-12T09:49:39.165Z,100726.00
2023-05-12T09:52:07.762Z,100733.00
2023-05-12T09:54:36.741Z,100729.00
2023-05-12T09:57:05.802Z,100734.00
2023-05-12T09:59:36.040Z,100721.00
2023-05-12T10:02:09.916Z,100725.00
2023-05-12T10:04:48.591Z,100723.00
2023-05-12T10:07:18.098Z,100723.00
2023-05-12T10:09:46.575Z,100720.00
2023-05-12T10:12:14.816Z,100732.00
2023-05-12T10:14:43.727Z,100728.00
2023-05-12T10:17:12.824Z,100714.00
2023-05-12T10:19:42.943Z,100718.00
2023-05-12T10:22:12.151Z,100713.00
2023-05-12T10:24:44.634Z,100716.00
2023-05-12T10:27:13.633Z,100715.00
2023-05-12T10:29:41.834Z,100724.00
2023-05-12T10:32:11.712Z,100718.00
2023-05-12T10:34:42.379Z,100722.00
2023-05-12T10:37:13.135Z,100714.00
2023-05-12T10:39:50.801Z,100712.00
2023-05-12T10:42:26.301Z,100706.00
2023-05-12T10:44:56.782Z,100701.00
2023-05-12T10:47:29.590Z,100705.00
2023-05-12T10:50:01.227Z,100707.00
2023-05-12T10:52:29.371Z,100704.00
2023-05-12T10:55:07.156Z,100703.00
2023-05-12T10:57:35.498Z,100709.00
2023-05-12T11:00:05.199Z,100707.00
2023-05-12T11:02:36.383Z,100702.00
2023-05-12T11:05:13.424Z,100698.00
2023-05-12T11:10:15.625Z,100699.00
2023-05-12T11:12:45.324Z,100691.00
2023-05-12T11:15:14.664Z,100700.00
2023-05-12T11:17:43.612Z,100693.00
2023-05-12T11:20:21.995Z,100697.00
2023-05-12T11:22:50.558Z,100693.00
2023-05-12T11:25:19.251Z,100698.00
2023-05-12T11:27:51.383Z,100692.00
2023-05-12T11:30:20.122Z,100697.00
2023-05-12T11:32:48.949Z,100694.00
2023-05-12T11:35:18.944Z,100687.00
2023-05-12T11:37:47.781Z,100706.00
2023-05-12T11:40:16.744Z,100704.00
2023-05-12T11:42:48.020Z,100708.00
2023-05-12T11:45:30.265Z,100703.00
2023-05-12T11:48:14.335Z,100710.00
2023-05-12T11:50:44.915Z,100704.00
2023-05-12T11:53:15.315Z,100701.00
2023-05-12T11:55:54.631Z,100706.00
2023-05-12T11:58:27.048Z,100703.00
2023-05-12T12:00:55.742Z,100700.00
2023-05-12T12:03:24.504Z,100709.00
2023-05-12T12:06:01.527Z,100717.00
2023-05-12T12:08:29.953Z,100714.00
2023-05-12T12:10:57.834Z,100714.00
2023-05-12T12:13:26.702Z,100716.00
2023-05-12T12:15:54.734Z,100714.00
2023-05-12T12:18:23.041Z,100719.00
2023-05-12T12:20:51.165Z,100716.00
2023-05-12T12:23:19.339Z,100715.00
2023-05-12T12:25:47.653Z,100714.00
2023-05-12T12:28:15.836Z,100720.00
2023-05-12T12:30:43.839Z,100719.00
2023-05-12T12:33:12.244Z,100724.00
2023-05-12T12:35:40.272Z,100730.00
2023-05-12T12:38:09.125Z,100729.00
2023-05-12T12:40:37.721Z,100723.00
2023-05-12T12:43:06.015Z,100727.00
2023-05-12T12:45:36.800Z,100726.00
2023-05-12T12:48:06.873Z,100725.00
2023-05-12T12:50:36.469Z,100736.00
2023-05-12T12:53:04.639Z,100732.00
2023-05-12T12:55:32.705Z,100727.00
2023-05-12T12:58:00.827Z,100727.00
2023-05-12T13:00:29.206Z,100738.00
2023-05-12T13:02:57.411Z,100732.00
2023-05-12T13:05:25.845Z,100732.00
2023-05-12T13:07:53.810Z,100728.00
2023-05-12T13:10:21.721Z,100732.00
2023-05-12T13:12:50.038Z,100728.00
2023-05-12T13:15:19.615Z,100724.00
2023-05-12T13:17:51.026Z,100725.00
2023-05-12T13:20:19.453Z,100719.00
2023-05-12T13:22:47.939Z,100726.00
2023-05-12T13:25:15.923Z,100721.00
2023-05-12T13:27:44.144Z,100726.00
2023-05-12T13:30:14.380Z,100722.00
2023-05-12T13:32:42.850Z,100717.00
2023-05-12T13:35:11.050Z,100722.00
2023-05-12T13:37:39.245Z,100719.00
2023-05-12T13:40:08.227Z,100722.00
2023-05-12T13:42:36.842Z,100720.00
2023-05-12T13:45:09.430Z,100720.00
2023-05-12T13:47:38.482Z,100717.00
2023-05-12T13:50:08.050Z,100719.00
2023-05-12T13:52:36.177Z,100715.00
2023-05-12T13:55:04.311Z,100721.00
2023-05-12T13:57:32.457Z,100715.00
2023-05-12T14:00:01.087Z,100719.00
2023-05-12T14:02:29.111Z,100717.00
2023-05-12T14:04:57.546Z,100719.00
2023-05-12T14:07:25.746Z,100709.00
2023-05-12T14:09:53.995Z,100704.00
2023-05-12T14:12:21.944Z,100709.00
2023-05-12T14:14:50.879Z,100706.00
2023-05-12T14:17:19.348Z,100707.00
2023-05-12T14:19:48.023Z,100710.00
2023-05-12T14:22:25.581Z,100709.00
2023-05-12T14:24:56.001Z,100704.00
2023-05-12T14:27:24.149Z,100708.00
2023-05-12T14:29:52.396Z,100709.00
2023-05-12T14:32:20.578Z,100698.00
2023-05-12T14:34:48.685Z,100701.00
2023-05-12T14:37:16.838Z,100702.00
2023-05-12T14:39:44.983Z,100707.00
2023-05-12T14:42:12.874Z,100712.00
2023-05-12T14:44:40.852Z,100708.00
2023-05-12T14:47:09.297Z,100716.00
2023-05-12T14:49:37.824Z,100709.00
2023-05-12T14:52:06.883Z,100706.00
2023-05-12T14:54:35.578Z,100703.00
2023-05-12T14:57:04.514Z,100708.00
2023-05-12T14:59:32.631Z,100706.00
2023-05-12T15:02:00.910Z,100703.00
2023-05-12T15:04:29.013Z,100703.00
2023-05-12T15:06:57.234Z,100699.00
2023-05-12T15:09:25.560Z,100702.00
2023-05-12T15:11:53.765Z,100704.00
2023-05-12T15:14:21.928Z,100700.00
2023-05-12T15:16:50.269Z,100698.00
2023-05-12T15:19:20.800Z,100704.00
2023-05-12T15:21:49.086Z,100698.00
2023-05-12T15:24:17.331Z,100698.00
2023-05-12T15:26:45.256Z,100694.00
2023-05-12T15:29:15.681Z,100700.00
2023-05-12T15:31:43.815Z,100691.00
2023-05-12T15:34:11.922Z,100696.00
2023-05-12T15:36:41.819Z,100697.00
2023-05-12T15:39:09.677Z,100700.00
2023-05-12T15:41:37.750Z,100700.00
2023-05-12T15:44:06.623Z,100695.00
2023-05-12T15:46:37.684Z,100691.00
2023-05-12T15:49:05.542Z,100689.00
2023-05-12T15:51:34.197Z,100689.00
2023-05-12T15:54:03.006Z,100693.00
2023-05-12T15:56:31.060Z,100698.00
2023-05-12T15:58:59.061Z,100688.00
2023-05-12T16:01:27.596Z,100693.00
2023-05-12T16:03:55.748Z,100694.00
2023-05-12T16:06:24.292Z,100693.00
2023-05-12T16:08:53.825Z,100692.00
2023-05-12T16:11:21.724Z,100697.00
2023-05-12T16:13:51.934Z,100698.00
2023-05-12T16:16:20.350Z,100699.00
2023-05-12T16:18:51.026Z,100691.00
2023-05-12T16:21:20.279Z,100695.00
2023-05-12T16:23:48.270Z,100700.00
2023-05-12T16:26:16.435Z,100689.00
2023-05-12T16:28:44.887Z,100688.00
2023-05-12T16:31:18.426Z,100691.00
2023-05-12T16:33:46.797Z,100692.00
2023-05-12T16:36:15.420Z,100688.00
2023-05-12T16:38:44.446Z,100690.00
2023-05-12T16:41:12.752Z,100683.00
2023-05-12T16:43:40.843Z,100679.00
2023-05-12T16:46:09.050Z,100677.00
2023-05-12T16:48:37.034Z,100683.00
2023-05-12T16:51:08.147Z,100683.00
2023-05-12T16:53:37.144Z,100686.00
2023-05-12T16:56:05.754Z,100685.00
2023-05-12T16:58:34.254Z,100693.00
2023-05-12T17:01:03.153Z,100693.00
2023-05-12T17:03:31.939Z,100691.00
2023-05-12T17:06:03.232Z,100695.00
2023-05-12T17:08:31.309Z,100692.00
2023-05-12T17:10:59.556Z,100699.00
2023-05-12T17:13:27.716Z,100687.00
2023-05-12T17:15:56.721Z,100697.00
2023-05-12T17:18:26.230Z,100700.00
2023-05-12T17:20:54.736Z,100701.00
2023-05-12T17:23:25.919Z,100703.00
2023-05-12T17:25:54.354Z,100702.00
2023-05-12T17:28:22.967Z,100709.00
2023-05-12T17:30:51.066Z,100717.00
2023-05-12T17:33:19.336Z,100713.00
2023-05-12T17:36:00.501Z,100714.00
2023-05-12T17:38:35.600Z,100718.00
2023-05-12T17:41:04.017Z,100715.00
2023-05-12T17:43:32.528Z,100720.00
2023-05-12T17:46:00.935Z,100717.00
2023-05-12T17:48:33.503Z,100712.00
2023-05-12T17:51:03.548Z,100716.00
2023-05-12T17:53:32.865Z,100720.00
2023-05-12T17:56:01.792Z,100730.00
2023-05-12T17:58:29.754Z,100722.00
2023-05-12T18:00:58.108Z,100718.00
2023-05-12T18:03:26.350Z,100718.00
2023-05-12T18:05:57.618Z,100726.00
2023-05-12T18:08:25.502Z,100726.00
2023-05-12T18:10:53.576Z,100721.00
2023-05-12T18:13:21.471Z,100728.00
2023-05-12T18:15:50.434Z,100728.00
2023-05-12T18:18:18.936Z,100729.00
2023-05-12T18:20:47.177Z,100730.00
2023-05-12T18:23:15.201Z,100730.00
2023-05-12T18:25:43.680Z,100728.00
2023-05-12T18:28:11.824Z,100735.00
2023-05-12T18:30:40.172Z,100736.00
2023-05-12T18:33:08.158Z,100732.00
2023-05-12T18:35:36.190Z,100738.00
2023-05-12T18:38:04.185Z,100744.00
2023-05-12T18:40:32.222Z,100740.00
2023-05-12T18:43:00.662Z,100745.00
2023-05-12T18:45:28.760Z,100745.00
2023-05-12T18:47:56.868Z,100754.00
2023-05-12T18:50:25.002Z,100750.00
2023-05-12T18:52:52.931Z,100755.00
2023-05-12T18:55:21.300Z,100749.00
2023-05-12T18:57:50.006Z,100751.00
2023-05-12T19:00:18.455Z,100751.00
2023-05-12T19:02:49.034Z,100759.00
2023-05-12T19:05:17.050Z,100752.00
2023-05-12T19:07:45.034Z,100754.00
2023-05-12T19:10:12.988Z,100754.00
2023-05-12T19:12:41.371Z,100757.00
2023-05-12T19:15:10.096Z,100763.00
2023-05-12T19:17:37.954Z,100768.00
2023-05-12T19:20:06.555Z,100765.00
2023-05-12T19:22:35.840Z,100776.00
2023-05-12T19:25:04.516Z,100770.00
2023-05-12T19:27:32.669Z,100774.00
2023-05-12T19:30:02.531Z,100773.00
2023-05-12T19:32:34.252Z,100778.00
2023-05-12T19:35:05.092Z,100773.00
2023-05-12T19:37:34.244Z,100782.00
2023-05-12T19:40:03.297Z,100775.00
2023-05-12T19:42:31.505Z,100779.00
2023-05-12T19:45:00.863Z,100780.00
2023-05-12T19:47:29.424Z,100777.00
2023-05-12T19:49:57.733Z,100783.00
2023-05-12T19:52:26.046Z,100786.00
2023-05-12T19:54:54.091Z,100787.00
2023-05-12T19:57:22.616Z,100785.00
2023-05-12T19:59:50.515Z,100792.00
2023-05-12T20:02:21.080Z,100790.00
2023-05-12T20:04:54.813Z,100790.00
2023-05-12T20:07:23.254Z,100795.00
2023-05-12T20:09:51.500Z,100793.00
2023-05-12T20:12:19.666Z,100793.00
2023-05-12T20:14:49.893Z,100790.00
2023-05-12T20:17:18.453Z,100789.00
2023-05-12T20:19:46.627Z,100796.00
2023-05-12T20:22:14.624Z,100789.00
2023-05-12T20:24:42.596Z,100794.00
2023-05-12T20:27:10.933Z,100789.00
2023-05-12T20:29:39.084Z,100789.00
2023-05-12T20:32:07.305Z,100790.00
2023-05-12T20:34:38.429Z,100794.00
2023-05-12T20:37:06.554Z,100793.00
2023-05-12T20:39:34.564Z,100789.00
2023-05-12T20:42:06.970Z,100801.00
2023-05-12T20:44:34.903Z,100799.00
2023-05-12T20:47:03.082Z,100794.00
2023-05-12T20:49:31.169Z,100799.00
2023-05-12T20:51:59.194Z,100802.00
2023-05-12T20:54:27.197Z,100798.00
2023-05-12T20:56:55.170Z,100796.00
2023-05-12T20:59:28.273Z,100797.00
2023-05-12T21:01:56.529Z,100797.00
2023-05-12T21:04:24.696Z,100805.00
2023-05-12T21:06:55.789Z,100803.00
2023-05-12T21:09:23.867Z,100809.00
2023-05-12T21:11:51.790Z,100811.00
2023-05-12T21:14:20.065Z,100812.00
2023-05-12T21:16:49.043Z,100816.00
2023-05-12T21:19:17.083Z,100817.00
2023-05-12T21:21:45.165Z,100815.00
2023-05-12T21:24:13.295Z,100815.00
2023-05-12T21:26:43.230Z,100810.00
2023-05-12T21:29:11.395Z,100817.00
2023-05-12T21:31:39.470Z,100821.00
2023-05-12T21:34:07.465Z,100823.00
2023-05-12T21:36:35.473Z,100821.00
2023-05-12T21:39:06.676Z,100812.00
2023-05-12T21:41:34.660Z,100819.00
2023-05-12T21:44:05.714Z,100821.00
2023-05-12T21:46:36.760Z,100816.00
2023-05-12T21:49:04.931Z,100826.00
2023-05-12T21:51:33.479Z,100822.00
2023-05-12T21:54:01.415Z,100823.00
2023-05-12T21:56:29.354Z,100828.00
2023-05-12T21:58:57.381Z,100820.00
2023-05-12T22:01:28.635Z,100820.00
2023-05-12T22:04:01.129Z,100818.00
2023-05-12T22:06:29.456Z,100823.00
2023-05-12T22:08:57.529Z,100815.00
2023-05-12T22:11:25.590Z,100810.00
2023-05-12T22:13:53.481Z,100821.00
2023-05-12T22:16:25.841Z,100812.00
2023-05-12T22:19:03.180Z,100818.00
2023-05-12T22:21:31.609Z,100823.00
2023-05-12T22:23:59.784Z,100819.00
2023-05-12T22:26:27.727Z,100821.00
2023-05-12T22:28:55.942Z,100825.00
2023-05-12T22:31:24.150Z,100814.00
2023-05-12T22:33:52.402Z,100819.00
2023-05-12T22:36:20.392Z,100824.00
2023-05-12T22:38:48.576Z,100815.00
2023-05-12T22:41:18.978Z,100817.00
2023-05-12T22:43:47.379Z,100821.00
2023-05-12T22:46:15.874Z,100816.00
2023-05-12T22:48:44.207Z,100818.00
2023-05-12T22:51:12.285Z,100828.00
2023-05-12T22:53:43.011Z,100825.00
2023-05-12T22:56:10.952Z,100822.00
2023-05-12T22:58:42.225Z,100829.00
2023-05-12T23:01:10.638Z,100836.00
2023-05-12T23:03:38.438Z,100836.00
2023-05-12T23:06:06.729Z,100833.00
2023-05-12T23:08:35.473Z,100830.00
2023-05-12T23:11:06.351Z,100836.00
2023-05-12T23:13:34.266Z,100833.00
2023-05-12T23:16:16.650Z,100820.00
2023-05-12T23:18:44.963Z,100821.00
2023-05-12T23:21:13.090Z,100821.00
2023-05-12T23:23:41.000Z,100826.00
2023-05-12T23:26:15.852Z,100826.00
2023-05-12T23:28:43.882Z,100830.00
2023-05-12T23:31:14.499Z,100830.00
2023-05-12T23:33:42.769Z,100835.00
2023-05-12T23:36:11.465Z,100843.00
2023-05-12T23:38:39.685Z,100836.00
2023-05-12T23:41:07.694Z,100834.00
2023-05-12T23:43:35.606Z,100844.00
2023-05-12T23:46:03.765Z,100833.00
2023-05-12T23:48:33.293Z,100844.00
2023-05-12T23:51:01.350Z,100836.00
2023-05-12T23:53:29.425Z,100832.00
2023-05-12T23:55:57.395Z,100844.00
2023-05-12T23:58:25.343Z,100829.00
